Terminal Aerodrome Forecast
Issued by NWS

Home | Current Version | Previous Version | Text Only | Print | Product List | Glossary On
Versions: 1 2 3 4 5 6 7 8 9 10 11 12 13 14 15 16 17 18 19 20 21 22 23 24 25 26 27 28 29 30 31 32 33 34 35 36 37 38 39 40 41 42
000
FTAK31 PAFA 270925 AAE
TAFASC
TAF AMD
PASC 270925Z 2709/2806 23022KT 2SM BLSN SCT030 BKN070
      TEMPO 2709/2712 1SM -SN BLSN OVC013
     FM271200 25025KT 1SM BLSN BR OVC004
     FM272200 27018KT 2SM BLSN BR OVC004=

USA.gov is the U.S. government's official web portal to all federal, state and local government web resources and services.